CYVQ

Norman Wells Airport

Norman Wells, Northwest Territories, Canada
METAR CYVQ 181400Z 11022G35KT 5SM -SN DRSN SCT050 OVC080 M16/M20 A3027 RMK SN2SC1AS5 SLP261
Observed Flight Rules
Jan-18 @ 14:00 UTC (23 minutes ago) Marginal Visual Flight Rules
Wind Visibility Clouds Conditions
110° at 22 knots
 Gusting to 35 knots
5 miles
  • Scattered at 5,000' AGL
  • Overcast at 8,000' AGL
  • Light Snow
  • Low drifting
  • Snow
Temperatures Readings
Current -16°C / 3°F
Dewpoint -20°C / -4°F
Humidity 72%
Altimeter 30.27" Hg
Pressure 1026.1 hPa
Elevation 74
METAR CYVQ 181400Z 11022G35KT 5SM -SN DRSN SCT050 OVC080 M16/M20 A3027 RMK SN2SC1AS5 SLP261
Observed Flight Rules
Jan-18 @ 14:00 UTC
(23 minutes ago)
MVFR
Wind Visibility
110° at 22 knots
 Gusting to 35 knots
5 miles
Clouds
  • Scattered at 5,000' AGL
  • Overcast at 8,000' AGL
Conditions
  • Light Snow
  • Low drifting
  • Snow
Temperature Dewpoint
-16°C / 3°F -20°C / -4°F
Humidity Altimeter Pressure
72% 30.27" Hg 1026.1 hPa